Terminal Aerodrome Forecast
Issued by NWS Jackson, MS

Home | Current Version | Previous Version | Text Only | Print | Product List | Glossary On
Versions: 1 2 3 4 5 6 7 8 9 10 11 12 13 14 15 16
000
FTUS44 KMEG 250600 AAA
TAFTUP
TAF AMD
KTUP 250659Z 2507/2606 26010KT P6SM BKN080
      TEMPO 2507/2511 BKN015
     FM251200 33010KT P6SM SCT035
     FM252200 36007KT P6SM SKC
     FM260100 00000KT P6SM SKC=

USA.gov is the U.S. government's official web portal to all federal, state and local government web resources and services.